Time;durP1;ratioP1;P1;durP2;ratioP2;P2;SDS_P1;SDS_P2;PMS_P1;PMS_P2;Temp;Humidity;BMP_temperature;BMP_pressure;BME280_temperature;BME280_humidity;BME280_pressure;Samples;Min_cycle;Max_cycle;Signal;HPM_P1;HPM_P2
2022/10/17 00:00:46;;;;;;;55.30;35.90;;;;;;;13.74;100.00;101814.50;5000440;28;20053;-66
2022/10/17 00:03:12;;;;;;;52.55;38.10;;;;;;;13.70;100.00;101808.75;4997725;28;20497;-65
2022/10/17 00:05:46;;;;;;;56.92;38.03;;;;;;;13.65;100.00;101815.34;5003585;28;20026;-65
2022/10/17 00:08:13;;;;;;;56.67;38.13;;;;;;;13.60;100.00;101819.16;4994081;28;20099;-64
2022/10/17 00:10:39;;;;;;;64.63;39.35;;;;;;;13.64;100.00;101813.66;5003258;28;20045;-65
2022/10/17 00:13:05;;;;;;;57.88;37.25;;;;;;;13.60;100.00;101821.78;5008739;28;20107;-66
2022/10/17 00:15:31;;;;;;;62.92;37.50;;;;;;;13.64;100.00;101818.91;5002299;28;20021;-65
2022/10/17 00:17:56;;;;;;;58.55;37.22;;;;;;;13.64;100.00;101821.53;4993770;28;20026;-66
2022/10/17 00:20:22;;;;;;;51.03;37.08;;;;;;;13.60;100.00;101816.56;4995676;28;20382;-65
2022/10/17 00:22:47;;;;;;;69.82;38.33;;;;;;;13.60;100.00;101821.78;5004369;28;20037;-64
2022/10/17 00:25:13;;;;;;;56.38;37.28;;;;;;;13.60;100.00;101824.41;4999926;28;20044;-64
2022/10/17 00:27:40;;;;;;;57.05;37.58;;;;;;;13.57;100.00;101827.28;5008460;28;20453;-64
2022/10/17 00:30:09;;;;;;;58.85;37.50;;;;;;;13.57;100.00;101827.28;5006634;28;20470;-65
2022/10/17 00:32:35;;;;;;;58.80;36.95;;;;;;;13.53;100.00;101823.28;4994906;28;20045;-64
2022/10/17 00:35:01;;;;;;;52.10;37.17;;;;;;;13.52;100.00;101821.59;4989588;28;20608;-64
2022/10/17 00:37:27;;;;;;;55.90;36.97;;;;;;;13.51;100.00;101825.19;4991127;28;20033;-64
2022/10/17 00:39:53;;;;;;;53.88;35.38;;;;;;;13.50;100.00;101826.16;5004914;28;20052;-64
2022/10/17 00:42:18;;;;;;;56.83;37.05;;;;;;;13.46;100.00;101822.13;5003574;28;20034;-64
2022/10/17 00:44:46;;;;;;;53.70;35.50;;;;;;;13.44;100.00;101834.50;5004380;28;20504;-65
2022/10/17 00:47:19;;;;;;;55.38;37.25;;;;;;;13.41;100.00;101829.53;5005628;28;20037;-65
2022/10/17 00:49:46;;;;;;;56.58;35.88;;;;;;;13.37;100.00;101822.91;5002829;28;20038;-64
2022/10/17 00:52:16;;;;;;;52.42;36.30;;;;;;;13.37;100.00;101828.13;5005920;28;20069;-65
2022/10/17 00:54:59;;;;;;;52.55;35.42;;;;;;;13.38;100.00;101828.97;5005851;28;20108;-66
2022/10/17 00:57:27;;;;;;;54.88;36.78;;;;;;;13.39;100.00;101822.78;4998668;28;20061;-65
2022/10/17 00:59:56;;;;;;;54.53;35.65;;;;;;;13.37;100.00;101828.13;5005292;28;20044;-64
2022/10/17 01:02:21;;;;;;;59.20;38.83;;;;;;;13.36;100.00;101823.84;5002720;28;20493;-65
2022/10/17 01:04:50;;;;;;;58.55;38.17;;;;;;;13.37;100.00;101822.91;5005401;28;20121;-64
2022/10/17 01:07:16;;;;;;;49.97;36.20;;;;;;;13.38;100.00;101814.09;5006189;28;20029;-67
2022/10/17 01:09:44;;;;;;;53.33;35.15;;;;;;;13.43;100.00;101819.78;4999635;28;20115;-65
2022/10/17 01:12:23;;;;;;;67.60;35.88;;;;;;;13.43;100.00;101822.38;4991472;28;20034;-65
2022/10/17 01:15:13;;;;;;;54.80;36.38;;;;;;;13.44;100.00;101812.75;5005585;28;20029;-64
2022/10/17 01:17:54;;;;;;;51.97;35.17;;;;;;;13.41;100.00;101813.84;5005722;28;20042;-65
2022/10/17 01:20:58;;;;;;;52.13;35.30;;;;;;;13.43;100.00;101814.53;5001046;28;20033;-66
2022/10/17 01:23:45;;;;;;;54.05;34.97;;;;;;;13.41;100.00;101811.22;5002217;28;20133;-65
2022/10/17 01:26:26;;;;;;;54.75;33.85;;;;;;;13.36;100.00;101807.31;4999426;28;20040;-66
2022/10/17 01:29:21;;;;;;;52.90;33.70;;;;;;;13.36;100.00;101810.78;4998573;28;20030;-65
2022/10/17 01:32:15;;;;;;;52.80;34.83;;;;;;;13.36;100.00;101805.53;4988301;28;20041;-65
2022/10/17 01:34:58;;;;;;;49.08;33.55;;;;;;;13.38;100.00;101806.25;5002692;28;20172;-64
2022/10/17 01:37:24;;;;;;;48.50;32.88;;;;;;;13.38;100.00;101806.25;5001049;28;20129;-64
2022/10/17 01:40:06;;;;;;;51.70;33.05;;;;;;;13.40;100.00;101809.56;5006124;28;20121;-64
2022/10/17 01:42:47;;;;;;;43.65;31.10;;;;;;;13.37;100.00;101798.50;4999824;28;20046;-64
2022/10/17 01:45:23;;;;;;;49.22;33.55;;;;;;;13.26;100.00;101799.41;5001827;28;20030;-64
2022/10/17 01:47:53;;;;;;;48.63;34.30;;;;;;;13.27;100.00;101807.13;4999772;28;20034;-64
2022/10/17 01:50:32;;;;;;;53.05;33.45;;;;;;;13.24;100.00;101802.16;4996484;28;20045;-64
2022/10/17 01:53:05;;;;;;;51.00;34.67;;;;;;;13.30;100.00;101803.44;5001559;28;20149;-65
2022/10/17 01:55:38;;;;;;;58.03;35.58;;;;;;;13.32;100.00;101801.53;5005784;28;20065;-64
2022/10/17 01:58:19;;;;;;;52.10;33.55;;;;;;;13.30;100.00;101803.44;5001309;28;20029;-63
2022/10/17 02:00:47;;;;;;;52.97;33.80;;;;;;;13.33;100.00;101797.94;4993484;28;20066;-64
2022/10/17 02:03:16;;;;;;;49.35;32.28;;;;;;;13.38;100.00;101806.25;5000532;28;20392;-64
2022/10/17 02:05:42;;;;;;;48.20;32.53;;;;;;;13.40;100.00;101806.09;5005831;28;20507;-64
2022/10/17 02:08:08;;;;;;;46.70;32.50;;;;;;;13.46;100.00;101798.56;5003530;28;20087;-65
2022/10/17 02:10:37;;;;;;;51.67;33.08;;;;;;;13.46;100.00;101795.94;5005776;28;20604;-65
2022/10/17 02:13:11;;;;;;;49.30;33.90;;;;;;;13.42;100.00;101799.78;4997191;28;20034;-65
2022/10/17 02:16:26;;;;;;;47.90;32.60;;;;;;;13.38;100.00;101801.00;5007199;28;21735;-66
2022/10/17 02:19:16;;;;;;;51.20;33.25;;;;;;;13.36;100.00;101795.06;4991159;28;20039;-65
2022/10/17 02:21:58;;;;;;;45.95;32.35;;;;;;;13.33;100.00;101804.97;4990925;28;20178;-66
2022/10/17 02:24:42;;;;;;;48.80;33.22;;;;;;;13.30;100.00;101798.19;5008462;28;20037;-65
2022/10/17 02:27:15;;;;;;;53.05;34.40;;;;;;;13.25;100.00;101793.34;5006341;28;20049;-65
2022/10/17 02:29:57;;;;;;;50.75;35.55;;;;;;;13.20;100.00;101800.78;5007774;28;20604;-65
2022/10/17 02:32:42;;;;;;;50.33;33.78;;;;;;;13.25;100.00;101798.59;4993375;28;20037;-64
2022/10/17 02:35:11;;;;;;;48.03;33.17;;;;;;;13.28;100.00;101798.31;5006481;28;20065;-64
2022/10/17 02:37:40;;;;;;;46.63;31.77;;;;;;;13.31;100.00;101801.66;4999988;28;20334;-64
2022/10/17 02:40:08;;;;;;;53.22;34.22;;;;;;;13.31;100.00;101802.47;5006543;28;20033;-63
2022/10/17 02:42:34;;;;;;;48.97;33.35;;;;;;;13.36;100.00;101797.69;5003096;28;20045;-64
2022/10/17 02:45:02;;;;;;;47.00;33.20;;;;;;;13.32;100.00;101798.06;5006991;28;20115;-64
2022/10/17 02:47:35;;;;;;;54.55;32.65;;;;;;;13.32;100.00;101793.66;5006992;28;20045;-64
2022/10/17 02:50:01;;;;;;;51.22;33.72;;;;;;;13.33;100.00;101797.13;5009364;28;20046;-63
2022/10/17 02:52:26;;;;;;;45.72;33.13;;;;;;;13.32;100.00;101806.75;5001807;28;20045;-64
2022/10/17 02:55:15;;;;;;;46.90;32.65;;;;;;;13.28;100.00;101797.50;5006577;28;20465;-65
2022/10/17 02:57:43;;;;;;;46.05;31.30;;;;;;;13.29;100.00;101797.38;5001474;28;20549;-65
2022/10/17 03:00:12;;;;;;;44.45;30.48;;;;;;;13.31;100.00;101802.47;5005655;28;20034;-64
2022/10/17 03:02:46;;;;;;;49.05;33.13;;;;;;;13.33;100.00;101800.56;5004321;28;20037;-66
2022/10/17 03:05:16;;;;;;;46.35;32.58;;;;;;;13.35;100.00;101803.88;4997009;28;20042;-65
2022/10/17 03:07:41;;;;;;;48.58;32.45;;;;;;;13.37;100.00;101808.97;5002313;28;20516;-67
2022/10/17 03:10:07;;;;;;;48.13;32.22;;;;;;;13.37;100.00;101806.38;5007519;28;20058;-65
2022/10/17 03:12:32;;;;;;;48.28;32.45;;;;;;;13.33;100.00;101808.41;5000077;28;20515;-65
2022/10/17 03:14:58;;;;;;;50.35;33.72;;;;;;;13.35;100.00;101808.28;5005237;28;20037;-66
2022/10/17 03:17:23;;;;;;;47.85;32.25;;;;;;;13.32;100.00;101816.41;4996710;28;20039;-65
2022/10/17 03:19:49;;;;;;;46.92;31.17;;;;;;;13.25;100.00;101818.69;4994578;28;20088;-65
2022/10/17 03:22:14;;;;;;;49.20;33.28;;;;;;;13.18;100.00;101807.09;5008903;28;20075;-64
2022/10/17 03:27:15;;;;;;;48.65;31.60;;;;;;;13.18;100.00;101822.81;5022050;23;20121;-86
2022/10/17 03:29:40;;;;;;;43.90;30.67;;;;;;;13.17;100.00;101816.75;5008457;28;20045;-86
2022/10/17 03:32:05;;;;;;;47.20;31.73;;;;;;;13.18;100.00;101817.56;5009843;28;20515;-85
2022/10/17 03:34:31;;;;;;;46.45;32.47;;;;;;;13.18;100.00;101818.41;5010244;28;20381;-86
2022/10/17 03:36:56;;;;;;;51.75;33.15;;;;;;;13.18;100.00;101828.03;5010336;28;20033;-86
2022/10/17 03:39:22;;;;;;;44.55;30.73;;;;;;;13.18;100.00;101830.66;5008433;28;20025;-86
2022/10/17 03:41:47;;;;;;;48.38;32.22;;;;;;;13.18;100.00;101835.91;5008169;28;20599;-85
2022/10/17 03:44:13;;;;;;;46.42;32.28;;;;;;;13.16;100.00;101829.97;5010214;28;20422;-86
2022/10/17 03:46:38;;;;;;;52.63;34.60;;;;;;;13.15;100.00;101830.88;5010125;28;20026;-85
2022/10/17 03:49:04;;;;;;;46.13;32.15;;;;;;;13.13;100.00;101830.19;5008599;28;20338;-86
2022/10/17 03:51:32;;;;;;;45.60;32.00;;;;;;;13.14;100.00;101822.19;5010357;28;20032;-86
2022/10/17 03:53:57;;;;;;;45.92;30.88;;;;;;;13.16;100.00;101835.19;5010116;28;20437;-86
2022/10/17 03:56:24;;;;;;;42.50;30.73;;;;;;;13.19;100.00;101829.72;5009265;28;20026;-86
2022/10/17 03:58:50;;;;;;;47.00;32.03;;;;;;;13.18;100.00;101834.09;5007645;28;20018;-86
2022/10/17 04:01:16;;;;;;;40.53;30.17;;;;;;;13.17;100.00;101829.84;5007594;28;20040;-87
2022/10/17 04:03:43;;;;;;;45.10;29.90;;;;;;;13.13;100.00;101830.19;5009519;28;20056;-87
2022/10/17 04:06:11;;;;;;;44.60;31.13;;;;;;;13.11;100.00;101829.47;5009660;28;20041;-87
2022/10/17 04:08:37;;;;;;;49.10;31.92;;;;;;;13.12;100.00;101836.38;5008924;28;20458;-87
2022/10/17 04:11:05;;;;;;;56.75;30.98;;;;;;;13.11;100.00;101830.31;5008847;28;20022;-87
2022/10/17 04:13:31;;;;;;;45.53;30.80;;;;;;;13.04;100.00;101837.00;5008839;28;20026;-86
2022/10/17 04:16:05;;;;;;;45.55;30.98;;;;;;;12.96;100.00;101832.41;5007955;28;20556;-87
2022/10/17 04:18:31;;;;;;;43.03;30.60;;;;;;;12.98;100.00;101836.69;5009307;28;20030;-86
2022/10/17 04:20:59;;;;;;;45.65;32.05;;;;;;;12.98;100.00;101837.50;5009014;28;20029;-88
2022/10/17 04:23:26;;;;;;;42.45;30.38;;;;;;;12.95;100.00;101843.81;5009028;28;20540;-86
2022/10/17 04:25:55;;;;;;;42.03;29.40;;;;;;;12.85;100.00;101842.09;5008718;28;20129;-85
2022/10/17 04:28:21;;;;;;;44.53;30.63;;;;;;;12.92;100.00;101843.25;5010455;22;20056;-65
2022/10/17 04:30:46;;;;;;;47.97;30.75;;;;;;;12.96;100.00;101839.41;4974753;28;20050;-65
2022/10/17 04:33:12;;;;;;;46.20;30.55;;;;;;;12.94;100.00;101842.16;4993110;28;20029;-65
2022/10/17 04:35:37;;;;;;;46.65;30.60;;;;;;;12.97;100.00;101835.84;5004109;28;20038;-66
2022/10/17 04:38:03;;;;;;;47.97;30.60;;;;;;;13.00;100.00;101840.81;5006799;28;20026;-65
2022/10/17 04:40:29;;;;;;;43.35;29.20;;;;;;;12.99;100.00;101838.34;5008063;28;20030;-65
2022/10/17 04:42:54;;;;;;;45.08;30.90;;;;;;;12.98;100.00;101837.50;5007922;28;20026;-63
2022/10/17 04:45:20;;;;;;;43.70;30.30;;;;;;;12.96;100.00;101836.81;5008085;28;20034;-64
2022/10/17 04:47:45;;;;;;;41.47;28.92;;;;;;;12.98;100.00;101847.97;5007898;28;20133;-64
2022/10/17 04:50:10;;;;;;;40.92;29.30;;;;;;;13.00;100.00;101842.63;5008298;28;20061;-65
2022/10/17 04:52:36;;;;;;;44.20;31.55;;;;;;;12.99;100.00;101846.19;5008342;28;20080;-64
2022/10/17 04:55:04;;;;;;;44.70;30.10;;;;;;;12.99;100.00;101844.41;5008116;28;20026;-64
2022/10/17 04:57:29;;;;;;;41.60;30.52;;;;;;;12.97;100.00;101841.06;5008057;28;20026;-65
2022/10/17 04:59:55;;;;;;;44.15;31.40;;;;;;;12.95;100.00;101843.00;5008328;28;20026;-63
2022/10/17 05:02:20;;;;;;;46.22;29.95;;;;;;;12.92;100.00;101845.84;5007642;28;20044;-64
2022/10/17 05:04:46;;;;;;;42.85;29.80;;;;;;;12.90;100.00;101851.22;4990074;28;20026;-64
2022/10/17 05:07:11;;;;;;;44.72;30.17;;;;;;;12.93;100.00;101845.72;5007917;28;20029;-65
2022/10/17 05:09:36;;;;;;;42.10;29.77;;;;;;;12.95;100.00;101849.06;5007966;28;20507;-65
2022/10/17 05:12:02;;;;;;;40.30;28.88;;;;;;;12.96;100.00;101844.66;5007538;28;20058;-64
2022/10/17 05:14:28;;;;;;;43.40;29.27;;;;;;;12.93;100.00;101843.13;5008363;28;20026;-62
2022/10/17 05:16:53;;;;;;;44.58;29.92;;;;;;;12.94;100.00;101839.53;5007339;28;20049;-62
2022/10/17 05:19:18;;;;;;;43.47;29.05;;;;;;;12.94;100.00;101846.56;4996853;28;20030;-62
2022/10/17 05:21:44;;;;;;;41.85;29.10;;;;;;;12.98;100.00;101841.91;5005666;28;20029;-63
2022/10/17 05:24:12;;;;;;;44.03;28.52;;;;;;;13.03;100.00;101844.97;5007496;28;20056;-63
2022/10/17 05:26:38;;;;;;;40.97;28.67;;;;;;;13.04;100.00;101839.63;5005328;28;20181;-63
2022/10/17 05:29:04;;;;;;;39.92;29.00;;;;;;;13.08;100.00;101848.06;5006121;28;20529;-62
2022/10/17 05:31:30;;;;;;;37.53;27.48;;;;;;;13.13;100.00;101851.13;5013540;28;20102;-62
2022/10/17 05:34:00;;;;;;;41.28;28.30;;;;;;;13.17;100.00;101847.31;5022334;28;20037;-62
2022/10/17 05:36:25;;;;;;;39.28;26.60;;;;;;;13.18;100.00;101851.59;5007941;28;20033;-62
2022/10/17 05:38:51;;;;;;;36.65;26.40;;;;;;;13.15;100.00;101855.25;5009713;28;20037;-63
2022/10/17 05:41:17;;;;;;;40.63;27.23;;;;;;;13.10;100.00;101856.59;5007034;28;20027;-62
2022/10/17 05:43:43;;;;;;;38.97;28.75;;;;;;;13.10;100.00;101861.84;5016808;28;20027;-61
2022/10/17 05:46:09;;;;;;;43.55;27.77;;;;;;;13.09;100.00;101861.00;5008936;28;20158;-62
2022/10/17 05:48:35;;;;;;;43.17;28.63;;;;;;;13.12;100.00;101867.78;5010524;28;20077;-63
2022/10/17 05:51:06;;;;;;;42.70;27.55;;;;;;;13.12;100.00;101871.22;5012317;28;20043;-62
2022/10/17 05:53:37;;;;;;;36.13;26.15;;;;;;;13.06;100.00;101871.72;5012804;28;20479;-64
2022/10/17 05:56:06;;;;;;;48.03;29.98;;;;;;;13.01;100.00;101876.50;4994751;28;20038;-64
2022/10/17 05:58:33;;;;;;;44.22;28.23;;;;;;;12.97;100.00;101882.94;4993474;28;20087;-63
2022/10/17 06:01:05;;;;;;;41.05;28.95;;;;;;;12.94;100.00;101889.25;4992790;28;20034;-63
2022/10/17 06:03:31;;;;;;;41.40;28.23;;;;;;;12.92;100.00;101892.94;5011269;28;20058;-62
2022/10/17 06:06:09;;;;;;;44.92;28.67;;;;;;;12.94;100.00;101891.03;5011024;28;20058;-63
2022/10/17 06:08:35;;;;;;;40.90;28.58;;;;;;;13.00;100.00;101892.31;5021466;28;20041;-63
2022/10/17 06:11:00;;;;;;;42.05;29.25;;;;;;;13.02;100.00;101891.25;5024022;28;20045;-63
2022/10/17 06:13:26;;;;;;;42.78;28.58;;;;;;;13.05;100.00;101898.00;5008016;28;20059;-63
2022/10/17 06:15:52;;;;;;;40.75;27.95;;;;;;;13.10;100.00;101903.69;5006652;28;20022;-63
2022/10/17 06:18:17;;;;;;;38.95;27.73;;;;;;;13.16;100.00;101898.00;4989335;28;20042;-63
2022/10/17 06:20:43;;;;;;;46.67;28.98;;;;;;;13.24;100.00;101896.38;5009365;28;20022;-63
2022/10/17 06:23:08;;;;;;;37.92;28.90;;;;;;;13.26;100.00;101894.47;5007682;28;20030;-65
2022/10/17 06:25:34;;;;;;;41.05;27.65;;;;;;;13.29;100.00;101904.69;4990551;28;20113;-63
2022/10/17 06:27:59;;;;;;;41.90;27.77;;;;;;;13.33;100.00;101910.50;5007854;28;20049;-63
2022/10/17 06:30:25;;;;;;;38.40;26.63;;;;;;;13.38;100.00;101908.34;5010626;28;20040;-62
2022/10/17 06:32:53;;;;;;;39.00;26.90;;;;;;;13.45;100.00;101914.72;5010636;28;20482;-63
2022/10/17 06:35:19;;;;;;;36.45;25.45;;;;;;;13.56;100.00;101913.81;5010427;28;20490;-63
2022/10/17 06:37:44;;;;;;;41.80;26.48;;;;;;;13.67;100.00;101918.16;5010812;28;20037;-63
2022/10/17 06:40:11;;;;;;;34.20;23.85;;;;;;;13.75;100.00;101920.94;5010683;28;20374;-63
2022/10/17 06:42:40;;;;;;;34.70;24.20;;;;;;;13.82;100.00;101925.53;5008562;28;20413;-62
2022/10/17 06:45:07;;;;;;;32.63;24.77;;;;;;;13.87;100.00;101935.63;5016911;28;20465;-63
2022/10/17 06:47:33;;;;;;;35.25;24.58;;;;;;;13.89;100.00;101933.72;4998983;28;20100;-63
2022/10/17 06:49:58;;;;;;;32.63;23.88;;;;;;;13.94;100.00;101936.78;5002613;28;20401;-63
2022/10/17 06:52:24;;;;;;;34.90;23.83;;;;;;;13.99;100.00;101941.63;4992213;28;20102;-65
2022/10/17 06:54:50;;;;;;;36.85;24.00;;;;;;;14.03;100.00;101941.22;5010444;28;20048;-64
2022/10/17 06:57:16;;;;;;;35.55;24.55;;;;;;;14.05;100.00;101947.16;4992140;28;20041;-63
2022/10/17 06:59:42;;;;;;;33.10;23.90;;;;;;;14.07;100.00;101949.66;4987094;28;20458;-63
2022/10/17 07:02:09;;;;;;;32.17;24.25;;;;;;;14.09;100.00;101951.19;4993521;28;20037;-64
2022/10/17 07:04:34;;;;;;;37.38;24.17;;;;;;;14.14;100.00;101953.44;5003180;28;20026;-64
2022/10/17 07:07:01;;;;;;;30.85;23.23;;;;;;;14.15;100.00;101955.09;5009351;28;20026;-65
2022/10/17 07:09:28;;;;;;;30.95;24.20;;;;;;;14.22;100.00;101951.78;5007905;28;20038;-65
2022/10/17 07:11:53;;;;;;;30.90;22.58;;;;;;;14.31;100.00;101950.16;4990788;28;20116;-66
2022/10/17 07:14:19;;;;;;;31.33;22.80;;;;;;;14.40;100.00;101959.03;5007479;28;20524;-66
2022/10/17 07:16:44;;;;;;;31.67;22.70;;;;;;;14.43;100.00;101959.63;5007183;28;20036;-66
2022/10/17 07:19:10;;;;;;;30.95;21.85;;;;;;;14.51;100.00;101964.19;5007878;28;20030;-64
2022/10/17 07:21:35;;;;;;;30.00;23.92;;;;;;;14.52;100.00;101969.31;5005850;28;20140;-65
2022/10/17 07:24:01;;;;;;;33.22;23.27;;;;;;;14.59;100.00;101964.38;5006704;28;20726;-67
2022/10/17 07:26:26;;;;;;;28.85;21.85;;;;;;;14.67;100.00;101961.03;4987941;28;20049;-66
2022/10/17 07:28:54;;;;;;;32.83;23.13;;;;;;;14.77;100.00;101967.97;4990187;28;20044;-66
2022/10/17 07:31:21;;;;;;;32.08;22.17;;;;;;;14.80;100.00;101962.47;4999504;28;20667;-67
2022/10/17 07:33:48;;;;;;;33.00;21.98;;;;;;;14.88;100.00;101962.63;4990967;28;20034;-67
2022/10/17 07:36:15;;;;;;;28.30;21.30;;;;;;;14.93;100.00;101957.78;4992387;28;20022;-65
2022/10/17 07:38:41;;;;;;;29.33;21.70;;;;;;;14.99;100.00;101958.22;5008532;28;20030;-67
2022/10/17 07:41:09;;;;;;;31.40;21.67;;;;;;;15.01;100.00;101959.72;5009587;28;20032;-68
2022/10/17 07:43:35;;;;;;;34.25;21.83;;;;;;;15.08;100.00;101958.22;5009534;28;20030;-67
2022/10/17 07:46:02;;;;;;;28.95;21.23;;;;;;;15.14;100.00;101959.44;5007995;28;20057;-66
2022/10/17 07:48:28;;;;;;;32.92;20.42;;;;;;;15.34;100.00;101955.84;5008216;28;20037;-63
2022/10/17 07:50:54;;;;;;;28.50;20.42;;;;;;;15.38;100.00;101959.03;5009424;28;20026;-65
2022/10/17 07:53:19;;;;;;;31.85;20.50;;;;;;;15.48;100.00;101960.69;5008484;28;20096;-66
2022/10/17 07:55:46;;;;;;;26.42;20.10;;;;;;;15.60;100.00;101967.44;5007696;28;20129;-64
2022/10/17 07:58:13;;;;;;;26.80;19.83;;;;;;;15.70;100.00;101961.34;5009528;28;20429;-64
2022/10/17 08:00:39;;;;;;;31.98;20.33;;;;;;;15.77;100.00;101965.06;5007716;28;20034;-65
2022/10/17 08:03:05;;;;;;;26.83;20.02;;;;;;;15.74;100.00;101962.72;5008570;28;20069;-64
2022/10/17 08:05:31;;;;;;;24.05;20.10;;;;;;;15.78;100.00;101966.72;5008999;28;20036;-63
2022/10/17 08:07:56;;;;;;;24.88;20.25;;;;;;;15.91;100.00;101970.72;4991549;28;20026;-65
2022/10/17 08:10:27;;;;;;;24.50;18.35;;;;;;;16.02;100.00;101964.47;5006445;28;20439;-65
2022/10/17 08:12:57;;;;;;;23.35;18.75;;;;;;;16.09;100.00;101969.94;4991947;28;20049;-63
2022/10/17 08:15:24;;;;;;;25.45;19.02;;;;;;;16.10;100.00;101969.81;5008591;28;20021;-63
2022/10/17 08:17:50;;;;;;;29.85;18.52;;;;;;;16.09;100.00;101970.78;5009067;28;20432;-63
2022/10/17 08:20:16;;;;;;;23.30;18.98;;;;;;;16.20;100.00;101970.59;5007891;28;20159;-68
2022/10/17 08:22:42;;;;;;;22.45;17.73;;;;;;;16.25;100.00;101963.09;5007574;28;20398;-66
2022/10/17 08:25:08;;;;;;;24.42;18.05;;;;;;;16.34;100.00;101971.94;5008870;28;20056;-65
2022/10/17 08:27:34;;;;;;;23.15;18.27;;;;;;;16.38;100.00;101970.66;5008441;28;20050;-64
2022/10/17 08:30:00;;;;;;;24.65;17.98;;;;;;;16.47;100.00;101967.16;5008374;28;20037;-63
2022/10/17 08:32:28;;;;;;;25.27;18.15;;;;;;;16.61;100.00;101968.44;5006847;28;20650;-63
2022/10/17 08:34:54;;;;;;;24.60;17.65;;;;;;;16.77;99.44;101966.03;4990239;28;20064;-66
2022/10/17 08:37:21;;;;;;;25.17;18.10;;;;;;;16.72;100.00;101965.66;5008431;28;20095;-69
2022/10/17 08:39:46;;;;;;;26.88;17.17;;;;;;;16.76;99.80;101967.00;5007872;28;20528;-67
2022/10/17 08:42:27;;;;;;;22.95;17.70;;;;;;;16.86;97.64;101962.53;5008166;28;20171;-64
2022/10/17 08:45:08;;;;;;;23.58;18.02;;;;;;;16.96;96.61;101966.91;5006945;28;20038;-66
2022/10/17 08:47:46;;;;;;;21.40;18.30;;;;;;;17.02;97.00;101971.53;5008233;28;20461;-63
2022/10/17 08:50:26;;;;;;;24.30;17.40;;;;;;;17.14;95.99;101957.16;5008236;28;20029;-63
2022/10/17 08:53:01;;;;;;;26.58;19.35;;;;;;;17.02;97.39;101963.63;4999996;28;20097;-63
2022/10/17 08:55:41;;;;;;;28.40;20.13;;;;;;;16.96;97.51;101964.25;5000049;28;20037;-61
2022/10/17 08:58:26;;;;;;;25.05;18.95;;;;;;;17.01;98.58;101964.63;4987923;28;20029;-61
2022/10/17 09:01:29;;;;;;;25.55;19.02;;;;;;;17.04;96.92;101966.94;5003986;28;20033;-63
2022/10/17 09:04:17;;;;;;;22.10;18.80;;;;;;;17.17;96.13;101959.50;4990983;28;20101;-61
2022/10/17 09:06:53;;;;;;;24.17;18.60;;;;;;;17.19;97.46;101963.63;4954029;28;20516;-61
2022/10/17 09:09:39;;;;;;;23.20;18.08;;;;;;;17.19;97.34;101954.91;4998367;28;20097;-62
2022/10/17 09:12:14;;;;;;;30.10;19.45;;;;;;;17.17;98.50;101959.50;5004140;28;20048;-62
2022/10/17 09:15:30;;;;;;;22.33;18.48;;;;;;;17.07;97.45;101964.84;4994644;28;20041;-62
2022/10/17 09:18:01;;;;;;;21.67;18.20;;;;;;;17.21;98.43;101960.84;4988976;28;20037;-62
2022/10/17 09:20:39;;;;;;;25.70;18.23;;;;;;;17.33;97.50;101954.38;5006709;28;20040;-63
2022/10/17 09:23:18;;;;;;;22.60;18.05;;;;;;;17.37;97.97;101954.91;5006108;28;20084;-61
2022/10/17 09:25:49;;;;;;;20.75;18.30;;;;;;;17.36;98.88;101948.81;5006835;28;20452;-62
2022/10/17 09:28:30;;;;;;;21.00;18.75;;;;;;;17.38;99.49;101956.56;5003038;28;20042;-62
2022/10/17 09:31:02;;;;;;;21.05;18.25;;;;;;;17.36;99.69;101953.25;4987944;28;20042;-62
2022/10/17 09:33:36;;;;;;;21.90;17.83;;;;;;;17.31;100.00;101951.06;5008524;28;20048;-61
2022/10/17 09:36:07;;;;;;;23.33;17.70;;;;;;;17.33;100.00;101946.47;4988620;28;20034;-62
2022/10/17 09:38:47;;;;;;;20.52;17.92;;;;;;;17.41;99.76;101951.81;5004927;28;20038;-62
2022/10/17 09:41:18;;;;;;;21.73;16.58;;;;;;;17.57;99.75;101946.63;4990432;28;20074;-62
2022/10/17 09:43:44;;;;;;;20.85;17.75;;;;;;;17.59;100.00;101947.31;5003539;28;20235;-61
2022/10/17 09:46:24;;;;;;;22.92;17.92;;;;;;;17.58;100.00;101948.28;5002362;28;20030;-61
2022/10/17 09:48:56;;;;;;;19.65;16.70;;;;;;;17.64;100.00;101952.13;5001567;28;20072;-61
2022/10/17 09:51:22;;;;;;;25.77;19.27;;;;;;;17.69;100.00;101949.88;4988425;28;20458;-60
2022/10/17 09:54:03;;;;;;;23.55;18.02;;;;;;;17.71;100.00;101952.38;5000094;28;20057;-65
2022/10/17 09:56:28;;;;;;;23.13;17.63;;;;;;;17.80;99.60;101951.44;4992777;28;20036;-63
2022/10/17 09:58:57;;;;;;;23.08;18.65;;;;;;;17.79;98.70;101953.25;5003378;28;20504;-63
2022/10/17 10:01:24;;;;;;;21.45;17.42;;;;;;;17.98;97.57;101951.34;5004025;28;20031;-63
2022/10/17 10:04:11;;;;;;;25.02;17.88;;;;;;;18.05;97.42;101955.84;4985432;28;20557;-64
2022/10/17 10:06:38;;;;;;;22.88;18.02;;;;;;;18.14;98.31;101954.91;5003665;28;20053;-64
2022/10/17 10:09:05;;;;;;;24.13;18.85;;;;;;;18.16;98.70;101952.94;5006275;28;20044;-63
2022/10/17 10:12:14;;;;;;;26.33;18.08;;;;;;;18.15;98.90;101959.19;5000768;28;20058;-62
2022/10/17 10:14:40;;;;;;;21.63;19.25;;;;;;;18.14;99.80;101954.91;4923615;29;20063;-65
2022/10/17 10:17:24;;;;;;;22.52;18.20;;;;;;;18.15;99.88;101953.91;4922627;29;20036;-63
2022/10/17 10:19:51;;;;;;;28.45;18.55;;;;;;;18.27;99.92;101958.94;4923685;29;20458;-63
2022/10/17 10:22:19;;;;;;;24.50;19.70;;;;;;;18.28;99.54;101952.66;4922684;29;20444;-64
2022/10/17 10:24:44;;;;;;;21.80;17.92;;;;;;;18.31;99.11;101957.63;4921485;29;20062;-64
2022/10/17 10:27:16;;;;;;;22.88;19.55;;;;;;;18.30;98.66;101948.88;4924888;29;20138;-64
2022/10/17 10:29:50;;;;;;;25.27;18.55;;;;;;;18.26;98.51;101954.63;4925465;29;20123;-65
2022/10/17 10:32:27;;;;;;;25.52;18.90;;;;;;;18.26;98.55;101958.09;4924375;29;20027;-64
2022/10/17 10:34:59;;;;;;;28.05;18.45;;;;;;;18.38;98.29;101945.44;4924917;29;20043;-63
2022/10/17 10:37:27;;;;;;;26.90;20.13;;;;;;;18.55;97.99;101955.06;4919759;29;20043;-63
2022/10/17 10:39:59;;;;;;;27.08;18.65;;;;;;;18.54;98.28;101951.59;4928798;29;20142;-63
2022/10/17 10:42:27;;;;;;;25.67;19.55;;;;;;;18.52;97.52;101943.00;4930354;29;20078;-64
2022/10/17 10:44:56;;;;;;;25.73;19.83;;;;;;;18.67;95.88;101945.06;4929714;29;20046;-63
2022/10/17 10:47:25;;;;;;;22.17;18.58;;;;;;;18.73;95.32;101947.06;4930140;28;20032;-64
2022/10/17 10:50:06;;;;;;;25.95;18.98;;;;;;;18.80;95.80;101946.25;4991463;28;20034;-63
2022/10/17 10:52:41;;;;;;;28.80;19.92;;;;;;;18.88;95.88;101946.25;4995266;28;20077;-64
2022/10/17 10:55:29;;;;;;;22.45;18.67;;;;;;;18.90;95.15;101946.09;4996209;28;20036;-64
2022/10/17 10:58:02;;;;;;;23.73;18.48;;;;;;;18.86;94.87;101939.50;4999039;28;20638;-63
2022/10/17 11:00:31;;;;;;;22.48;17.65;;;;;;;18.92;94.74;101951.19;5002685;28;20778;-64
2022/10/17 11:03:16;;;;;;;23.40;18.45;;;;;;;19.06;90.35;101940.81;5004198;28;20042;-63
2022/10/17 11:05:48;;;;;;;25.23;18.25;;;;;;;19.20;90.95;101936.69;4997938;28;20030;-63
2022/10/17 11:08:25;;;;;;;18.52;16.10;;;;;;;19.31;88.75;101931.09;4979275;28;20161;-63
2022/10/17 11:11:12;;;;;;;22.40;16.55;;;;;;;19.32;87.97;101926.63;5002100;28;20060;-63
2022/10/17 11:13:47;;;;;;;23.50;16.92;;;;;;;19.34;89.07;101927.28;4985587;28;20041;-64
2022/10/17 11:16:31;;;;;;;20.92;16.02;;;;;;;19.35;89.19;101921.84;4988633;28;20034;-63
2022/10/17 11:19:32;;;;;;;23.38;17.63;;;;;;;19.23;89.64;101923.16;4997325;28;20510;-63